Terminal Aerodrome Forecast
Issued by NWS

Home | Current Version | Previous Version | Text Only | Print | Product List | Glossary On
Versions: 1 2 3 4 5 6 7 8 9 10 11 12 13 14 15 16 17 18 19
000
FTUS43 KDLH 241731 AAC
TAFBRD
TAF AMD
KBRD 241731Z 2418/2518 36005KT P6SM OVC015
      TEMPO 2418/2422 5SM BR SCT015 OVC025
     FM242200 01008KT P6SM OVC025
     FM250400 05006KT P6SM SCT025
     FM251200 10010KT P6SM BKN040=

USA.gov is the U.S. government's official web portal to all federal, state and local government web resources and services.